sensor_id;sensor_type;location;lat;lon;timestamp;pressure;altitude;pressure_sealevel;temperature;humidity
63582;BME280;49727;51.078;17.066;2023-09-19T00:13:57;99423.97;;;19.82;66.13
63582;BME280;49727;51.078;17.066;2023-09-19T00:29:01;99439.28;;;19.59;67.31
63582;BME280;49727;51.078;17.066;2023-09-19T00:44:08;99419.16;;;19.50;67.72
63582;BME280;49727;51.078;17.066;2023-09-19T00:59:09;99413.66;;;19.45;68.20
63582;BME280;49727;51.078;17.066;2023-09-19T01:29:39;99408.75;;;19.42;68.62
63582;BME280;49727;51.078;17.066;2023-09-19T02:00:10;99406.44;;;18.94;70.31
63582;BME280;49727;51.078;17.066;2023-09-19T02:15:12;99412.88;;;18.93;71.53
63582;BME280;49727;51.078;17.066;2023-09-19T02:30:13;99421.91;;;18.87;72.07
63582;BME280;49727;51.078;17.066;2023-09-19T02:45:16;99406.44;;;18.37;72.87
63582;BME280;49727;51.078;17.066;2023-09-19T03:00:19;99385.97;;;18.36;73.90
63582;BME280;49727;51.078;17.066;2023-09-19T03:15:22;99396.63;;;18.31;74.36
63582;BME280;49727;51.078;17.066;2023-09-19T03:30:22;99391.78;;;18.04;74.82
63582;BME280;49727;51.078;17.066;2023-09-19T03:45:22;99409.63;;;17.81;75.66
63582;BME280;49727;51.078;17.066;2023-09-19T04:00:23;99403.91;;;17.77;76.28
63582;BME280;49727;51.078;17.066;2023-09-19T04:15:26;99395.22;;;17.75;76.79
63582;BME280;49727;51.078;17.066;2023-09-19T04:30:27;99402.50;;;17.63;77.35
63582;BME280;49727;51.078;17.066;2023-09-19T04:45:28;99417.03;;;17.50;77.78
63582;BME280;49727;51.078;17.066;2023-09-19T05:00:29;99425.59;;;17.47;78.44
63582;BME280;49727;51.078;17.066;2023-09-19T05:15:30;99422.19;;;17.64;79.04
63582;BME280;49727;51.078;17.066;2023-09-19T05:30:32;99435.53;;;17.58;78.55
63582;BME280;49727;51.078;17.066;2023-09-19T05:45:32;99467.63;;;17.60;78.82
63582;BME280;49727;51.078;17.066;2023-09-19T06:00:33;99487.31;;;17.96;79.12
63582;BME280;49727;51.078;17.066;2023-09-19T06:15:33;63046.97;;;-147.20;100.00
63582;BME280;49727;51.078;17.066;2023-09-19T06:30:36;63046.97;;;-147.20;100.00
63582;BME280;49727;51.078;17.066;2023-09-19T06:45:40;63046.97;;;-147.20;100.00
63582;BME280;49727;51.078;17.066;2023-09-19T07:00:40;63046.97;;;-147.20;100.00
63582;BME280;49727;51.078;17.066;2023-09-19T07:15:40;63046.97;;;-147.20;100.00
63582;BME280;49727;51.078;17.066;2023-09-19T07:30:46;63046.97;;;-147.20;100.00
63582;BME280;49727;51.078;17.066;2023-09-19T07:45:46;63046.97;;;-147.20;100.00
63582;BME280;49727;51.078;17.066;2023-09-19T08:00:48;63046.97;;;-147.20;100.00
63582;BME280;49727;51.078;17.066;2023-09-19T08:15:48;63046.97;;;-147.20;100.00
63582;BME280;49727;51.078;17.066;2023-09-19T08:30:48;63046.97;;;-147.20;100.00
63582;BME280;49727;51.078;17.066;2023-09-19T08:45:49;63046.97;;;-147.20;100.00
63582;BME280;49727;51.078;17.066;2023-09-19T09:00:50;63046.97;;;-147.20;100.00
63582;BME280;49727;51.078;17.066;2023-09-19T09:15:51;63046.97;;;-147.20;100.00
63582;BME280;49727;51.078;17.066;2023-09-19T09:30:52;63046.97;;;-147.20;100.00
63582;BME280;49727;51.078;17.066;2023-09-19T10:01:23;63046.97;;;-147.20;100.00
63582;BME280;49727;51.078;17.066;2023-09-19T10:16:30;63046.97;;;-147.20;100.00
63582;BME280;49727;51.078;17.066;2023-09-19T10:31:32;63046.97;;;-147.20;100.00
63582;BME280;49727;51.078;17.066;2023-09-19T10:46:36;63046.97;;;-147.20;100.00
63582;BME280;49727;51.078;17.066;2023-09-19T11:32:05;63046.97;;;-147.20;100.00
63582;BME280;49727;51.078;17.066;2023-09-19T11:47:06;63046.97;;;-147.20;100.00
63582;BME280;49727;51.078;17.066;2023-09-19T12:02:07;63046.97;;;-147.20;100.00
63582;BME280;49727;51.078;17.066;2023-09-19T12:17:10;63046.97;;;-147.20;100.00
63582;BME280;49727;51.078;17.066;2023-09-19T12:32:13;63046.97;;;-147.20;100.00
63582;BME280;49727;51.078;17.066;2023-09-19T12:47:19;63046.97;;;-147.20;100.00
63582;BME280;49727;51.078;17.066;2023-09-19T13:02:24;63046.97;;;-147.20;100.00
63582;BME280;49727;51.078;17.066;2023-09-19T13:17:42;63046.97;;;-147.20;100.00
63582;BME280;49727;51.078;17.066;2023-09-19T13:32:43;63046.97;;;-147.20;100.00
63582;BME280;49727;51.078;17.066;2023-09-19T13:47:43;63046.97;;;-147.20;100.00
63582;BME280;49727;51.078;17.066;2023-09-19T14:02:44;63046.97;;;-147.20;100.00
63582;BME280;49727;51.078;17.066;2023-09-19T14:17:49;63046.97;;;-147.20;100.00
63582;BME280;49727;51.078;17.066;2023-09-19T14:32:49;63046.97;;;-147.20;100.00
63582;BME280;49727;51.078;17.066;2023-09-19T14:47:50;63046.97;;;-147.20;100.00
63582;BME280;49727;51.078;17.066;2023-09-19T15:02:54;63046.97;;;-147.20;100.00
63582;BME280;49727;51.078;17.066;2023-09-19T15:17:56;63046.97;;;-147.20;100.00
63582;BME280;49727;51.078;17.066;2023-09-19T15:32:56;63046.97;;;-147.20;100.00
63582;BME280;49727;51.078;17.066;2023-09-19T15:47:56;63046.97;;;-147.20;100.00
63582;BME280;49727;51.078;17.066;2023-09-19T16:02:57;63046.97;;;-147.20;100.00
63582;BME280;49727;51.078;17.066;2023-09-19T16:17:58;63046.97;;;-147.20;100.00
63582;BME280;49727;51.078;17.066;2023-09-19T16:33:00;63046.97;;;-147.20;100.00
63582;BME280;49727;51.078;17.066;2023-09-19T16:48:00;63046.97;;;-147.20;100.00
63582;BME280;49727;51.078;17.066;2023-09-19T17:03:01;63046.97;;;-147.20;100.00
63582;BME280;49727;51.078;17.066;2023-09-19T17:18:03;63046.97;;;-147.20;100.00
63582;BME280;49727;51.078;17.066;2023-09-19T17:33:04;63046.97;;;-147.20;100.00
63582;BME280;49727;51.078;17.066;2023-09-19T17:48:06;63046.97;;;-147.20;100.00
63582;BME280;49727;51.078;17.066;2023-09-19T18:03:06;63046.97;;;-147.20;100.00
63582;BME280;49727;51.078;17.066;2023-09-19T18:18:06;63046.97;;;-147.20;100.00
63582;BME280;49727;51.078;17.066;2023-09-19T18:33:07;63046.97;;;-147.20;100.00
63582;BME280;49727;51.078;17.066;2023-09-19T18:48:07;63046.97;;;-147.20;100.00
63582;BME280;49727;51.078;17.066;2023-09-19T19:03:08;63046.97;;;-147.20;100.00
63582;BME280;49727;51.078;17.066;2023-09-19T19:18:08;63046.97;;;-147.20;100.00
63582;BME280;49727;51.078;17.066;2023-09-19T19:33:08;63046.97;;;-147.20;100.00
63582;BME280;49727;51.078;17.066;2023-09-19T19:48:10;63046.97;;;-147.20;100.00
63582;BME280;49727;51.078;17.066;2023-09-19T20:03:10;63046.97;;;-147.20;100.00
63582;BME280;49727;51.078;17.066;2023-09-19T20:18:13;63046.97;;;-147.20;100.00
63582;BME280;49727;51.078;17.066;2023-09-19T20:33:13;63046.97;;;-147.20;100.00
63582;BME280;49727;51.078;17.066;2023-09-19T20:48:14;63046.97;;;-147.20;100.00
63582;BME280;49727;51.078;17.066;2023-09-19T21:03:16;63046.97;;;-147.20;100.00
63582;BME280;49727;51.078;17.066;2023-09-19T21:18:16;63046.97;;;-147.20;100.00
63582;BME280;49727;51.078;17.066;2023-09-19T21:33:17;63046.97;;;-147.20;100.00
63582;BME280;49727;51.078;17.066;2023-09-19T21:48:18;63046.97;;;-147.20;100.00
63582;BME280;49727;51.078;17.066;2023-09-19T22:03:18;63046.97;;;-147.20;100.00
63582;BME280;49727;51.078;17.066;2023-09-19T22:18:18;63046.97;;;-147.20;100.00
63582;BME280;49727;51.078;17.066;2023-09-19T22:33:20;63046.97;;;-147.20;100.00
63582;BME280;49727;51.078;17.066;2023-09-19T22:48:22;99933.41;;;14.61;66.82
63582;BME280;49727;51.078;17.066;2023-09-19T23:03:25;99937.53;;;14.64;66.50
63582;BME280;49727;51.078;17.066;2023-09-19T23:18:28;99944.50;;;14.51;66.17
63582;BME280;49727;51.078;17.066;2023-09-19T23:33:29;99952.47;;;14.25;66.11
63582;BME280;49727;51.078;17.066;2023-09-19T23:48:31;99955.66;;;14.00;66.11
